Time;durP1;ratioP1;P1;durP2;ratioP2;P2;SDS_P1;SDS_P2;PMS_P1;PMS_P2;Temp;Humidity;BMP_temperature;BMP_pressure;BME280_temperature;BME280_humidity;BME280_pressure;Samples;Min_cycle;Max_cycle;Signal;HPM_P1;HPM_P2
2022/09/07 00:01:41;;;;;;;12.77;6.53;;;22.20;56.50;;;;;;4975391;28;20378;-74
2022/09/07 00:04:08;;;;;;;12.40;6.40;;;22.30;56.30;;;;;;4992470;28;20105;-74
2022/09/07 00:06:34;;;;;;;12.13;6.18;;;22.20;56.10;;;;;;4992581;28;20093;-74
2022/09/07 00:09:03;;;;;;;11.55;6.63;;;22.20;56.50;;;;;;4974755;28;20180;-75
2022/09/07 00:11:29;;;;;;;11.40;6.07;;;22.20;56.50;;;;;;4975257;28;20083;-75
2022/09/07 00:13:55;;;;;;;10.77;5.85;;;22.20;56.30;;;;;;4992601;28;20109;-74
2022/09/07 00:16:27;;;;;;;10.57;5.95;;;22.20;56.00;;;;;;4992926;28;20109;-75
2022/09/07 00:18:55;;;;;;;12.18;6.57;;;22.20;56.00;;;;;;4992351;28;20398;-74
2022/09/07 00:21:22;;;;;;;12.95;5.60;;;22.20;56.10;;;;;;4975117;28;20030;-74
2022/09/07 00:23:49;;;;;;;10.43;5.90;;;22.20;56.30;;;;;;4975057;28;20026;-75
2022/09/07 00:26:24;;;;;;;12.05;5.40;;;22.20;56.20;;;;;;4974950;28;20034;-75
2022/09/07 00:28:51;;;;;;;8.60;5.68;;;22.20;56.00;;;;;;4992032;28;20073;-74
2022/09/07 00:31:20;;;;;;;8.35;4.80;;;22.20;56.20;;;;;;4992235;28;20101;-74
2022/09/07 00:33:47;;;;;;;10.00;5.15;;;22.20;56.20;;;;;;4992591;28;20124;-74
2022/09/07 00:36:14;;;;;;;10.55;4.85;;;22.20;56.30;;;;;;4992239;28;20089;-74
2022/09/07 00:38:41;;;;;;;9.80;5.60;;;22.20;56.20;;;;;;4991926;28;20570;-74
2022/09/07 00:41:06;;;;;;;7.47;4.43;;;22.30;55.90;;;;;;4992272;28;20032;-74
2022/09/07 00:43:40;;;;;;;7.57;4.43;;;22.20;56.10;;;;;;4992323;28;20038;-75
2022/09/07 00:46:17;;;;;;;10.38;4.55;;;22.30;56.10;;;;;;4992215;28;20483;-74
2022/09/07 00:48:56;;;;;;;8.57;4.45;;;22.30;56.00;;;;;;4991706;28;20487;-74
2022/09/07 00:51:48;;;;;;;7.45;4.50;;;22.20;55.60;;;;;;4992141;28;20105;-74
2022/09/07 00:54:21;;;;;;;8.40;4.57;;;22.30;55.90;;;;;;4994673;28;20030;-74
2022/09/07 00:56:49;;;;;;;7.97;4.40;;;22.30;55.80;;;;;;4996106;28;20038;-74
2022/09/07 00:59:19;;;;;;;9.55;4.75;;;22.30;55.60;;;;;;4995634;28;20475;-74
2022/09/07 01:01:45;;;;;;;10.07;4.40;;;22.30;55.80;;;;;;4995988;28;20390;-75
2022/09/07 01:04:13;;;;;;;8.30;4.35;;;22.30;55.60;;;;;;4978729;28;20028;-75
2022/09/07 01:06:40;;;;;;;6.45;3.83;;;22.20;55.60;;;;;;4978424;28;20474;-75
2022/09/07 01:09:09;;;;;;;7.35;3.97;;;22.20;55.60;;;;;;4978198;28;20258;-74
2022/09/07 01:11:37;;;;;;;7.47;3.45;;;22.20;55.60;;;;;;4995786;28;20033;-74
2022/09/07 01:14:08;;;;;;;6.25;3.40;;;22.20;55.30;;;;;;4995898;28;20545;-74
2022/09/07 01:16:47;;;;;;;7.35;3.95;;;22.20;55.50;;;;;;4978318;28;20315;-74
2022/09/07 01:19:33;;;;;;;6.38;3.53;;;22.20;55.50;;;;;;4995234;28;20030;-75
2022/09/07 01:22:17;;;;;;;8.80;3.78;;;22.20;55.40;;;;;;4995615;28;20030;-75
2022/09/07 01:25:12;;;;;;;6.95;3.50;;;22.20;55.10;;;;;;4995511;28;20100;-75
2022/09/07 01:27:59;;;;;;;7.68;3.22;;;22.20;55.20;;;;;;4995390;28;20376;-75
2022/09/07 01:30:25;;;;;;;6.97;3.53;;;22.20;55.00;;;;;;4995297;28;20022;-75
2022/09/07 01:33:10;;;;;;;7.20;3.22;;;22.20;55.20;;;;;;4978055;28;20022;-75
2022/09/07 01:36:01;;;;;;;7.38;3.28;;;22.20;55.30;;;;;;4995710;28;20038;-74
2022/09/07 01:38:36;;;;;;;6.60;3.67;;;22.20;55.20;;;;;;4994939;28;20537;-74
2022/09/07 01:41:29;;;;;;;4.85;2.97;;;22.20;55.30;;;;;;4977995;28;20084;-74
2022/09/07 01:44:07;;;;;;;7.82;3.13;;;22.20;55.30;;;;;;4995203;28;20442;-74
2022/09/07 01:46:38;;;;;;;5.95;2.90;;;22.20;55.10;;;;;;4995117;28;20100;-74
2022/09/07 01:49:13;;;;;;;4.85;2.58;;;22.20;55.00;;;;;;5009689;23;20096;-77
2022/09/07 01:51:44;;;;;;;6.60;2.90;;;22.20;55.10;;;;;;4967981;28;20030;-77
2022/09/07 01:54:21;;;;;;;7.15;3.17;;;22.20;54.80;;;;;;4975496;28;20055;-78
2022/09/07 01:56:50;;;;;;;6.55;3.08;;;22.20;54.80;;;;;;4975707;28;20117;-77
2022/09/07 01:59:36;;;;;;;8.83;2.70;;;22.20;55.00;;;;;;4975199;28;20041;-78
2022/09/07 02:02:07;;;;;;;4.80;2.40;;;22.20;54.70;;;;;;4958161;28;20066;-77
2022/09/07 02:04:42;;;;;;;5.10;2.88;;;22.20;54.80;;;;;;4974547;28;20026;-78
2022/09/07 02:07:14;;;;;;;4.70;2.60;;;22.20;54.90;;;;;;4975399;28;20451;-78
2022/09/07 02:09:54;;;;;;;5.45;2.60;;;22.20;54.80;;;;;;4975007;28;20027;-78
2022/09/07 02:12:29;;;;;;;4.75;2.45;;;22.20;54.80;;;;;;4958015;28;20030;-78
2022/09/07 02:15:03;;;;;;;4.55;2.50;;;22.20;54.70;;;;;;4975187;28;20407;-78
2022/09/07 02:17:36;;;;;;;5.47;2.50;;;22.20;54.70;;;;;;4975144;28;20085;-78
2022/09/07 02:20:20;;;;;;;4.47;2.58;;;22.20;54.60;;;;;;4975046;28;20057;-78
2022/09/07 02:22:57;;;;;;;6.70;2.38;;;22.10;54.60;;;;;;4975159;28;20031;-78
2022/09/07 02:25:30;;;;;;;6.15;2.60;;;22.10;54.50;;;;;;4973824;28;20034;-78
2022/09/07 02:28:05;;;;;;;3.50;2.17;;;22.20;54.70;;;;;;4974978;28;20089;-78
2022/09/07 02:30:31;;;;;;;5.40;2.50;;;22.20;54.60;;;;;;4974659;28;20027;-78
2022/09/07 02:32:56;;;;;;;6.28;2.50;;;22.20;54.50;;;;;;4957609;28;20110;-78
2022/09/07 02:35:22;;;;;;;6.90;2.47;;;22.20;54.60;;;;;;4941697;28;20130;-78
2022/09/07 02:37:50;;;;;;;5.25;2.47;;;22.20;54.50;;;;;;4973447;28;20027;-78
2022/09/07 02:40:16;;;;;;;5.10;2.45;;;22.20;54.30;;;;;;4974467;28;20105;-78
2022/09/07 02:42:44;;;;;;;4.82;2.53;;;22.20;54.40;;;;;;4974675;28;20484;-77
2022/09/07 02:45:12;;;;;;;6.13;2.55;;;22.20;54.30;;;;;;4974726;28;20026;-77
2022/09/07 02:48:02;;;;;;;3.90;2.10;;;22.20;54.30;;;;;;4974652;28;20073;-77
2022/09/07 02:50:35;;;;;;;4.25;2.60;;;22.20;54.80;;;;;;4957006;28;20467;-77
2022/09/07 02:53:30;;;;;;;6.97;2.40;;;22.20;54.30;;;;;;4957477;28;20035;-77
2022/09/07 02:56:31;;;;;;;6.85;2.33;;;22.20;54.20;;;;;;4974537;28;20042;-78
2022/09/07 02:59:21;;;;;;;5.10;2.45;;;22.20;54.10;;;;;;4956832;28;20412;-77
2022/09/07 03:02:04;;;;;;;6.03;2.50;;;22.20;54.00;;;;;;4956871;28;20027;-77
2022/09/07 03:04:45;;;;;;;3.03;2.15;;;22.20;54.00;;;;;;4974181;28;20101;-77
2022/09/07 03:07:24;;;;;;;4.78;2.03;;;22.20;54.10;;;;;;4957082;28;20130;-77
2022/09/07 03:09:55;;;;;;;5.28;2.40;;;22.20;53.80;;;;;;4956576;28;20105;-77
2022/09/07 03:12:21;;;;;;;4.30;2.33;;;22.10;53.90;;;;;;4974215;28;20034;-77
2022/09/07 03:14:47;;;;;;;4.00;2.20;;;22.10;53.60;;;;;;4974083;28;20399;-77
2022/09/07 03:17:14;;;;;;;5.25;2.20;;;22.10;54.30;;;;;;4974038;28;20037;-77
2022/09/07 03:19:39;;;;;;;7.45;2.22;;;22.10;53.90;;;;;;4973540;28;20038;-77
2022/09/07 03:22:06;;;;;;;6.15;2.25;;;22.10;53.80;;;;;;4956708;28;20035;-77
2022/09/07 03:24:31;;;;;;;6.65;2.20;;;22.10;54.30;;;;;;4973831;28;20026;-78
2022/09/07 03:26:58;;;;;;;5.38;2.25;;;22.10;53.90;;;;;;4973945;28;20169;-77
2022/09/07 03:29:24;;;;;;;6.05;2.38;;;22.10;53.80;;;;;;4973410;28;20035;-78
2022/09/07 03:31:50;;;;;;;3.50;1.88;;;22.10;53.80;;;;;;4973779;28;20033;-78
2022/09/07 03:34:16;;;;;;;5.88;2.17;;;22.10;53.90;;;;;;4956528;28;20030;-78
2022/09/07 03:36:42;;;;;;;5.47;2.03;;;22.10;53.80;;;;;;4973690;28;20031;-77
2022/09/07 03:39:10;;;;;;;4.63;2.30;;;22.10;53.80;;;;;;4956208;28;20038;-77
2022/09/07 03:41:37;;;;;;;3.63;2.00;;;22.10;53.80;;;;;;4956167;28;20026;-77
2022/09/07 03:44:07;;;;;;;7.03;2.20;;;22.10;53.60;;;;;;4956323;28;20027;-77
2022/09/07 03:46:33;;;;;;;;;;;22.10;53.70;;;;;;4973962;28;20114;-77
2022/09/07 03:48:59;;;;;;;6.53;2.60;;;22.10;53.80;;;;;;4971800;28;19914;-77
2022/09/07 03:51:25;;;;;;;9.98;2.72;;;22.10;53.60;;;;;;4973587;28;20041;-77
2022/09/07 03:53:50;;;;;;;4.95;2.85;;;22.10;53.60;;;;;;4956349;28;20480;-77
2022/09/07 03:56:19;;;;;;;4.63;2.50;;;22.10;53.60;;;;;;4973443;28;20041;-78
2022/09/07 03:58:46;;;;;;;6.93;2.30;;;22.10;53.60;;;;;;4972941;28;20102;-79
2022/09/07 04:01:18;;;;;;;5.75;2.20;;;22.10;53.60;;;;;;4955941;28;20041;-79
2022/09/07 04:03:45;;;;;;;6.18;2.67;;;22.10;53.60;;;;;;4956149;28;20038;-79
2022/09/07 04:06:12;;;;;;;6.07;2.30;;;22.10;53.50;;;;;;4973215;28;20030;-78
2022/09/07 04:08:39;;;;;;;5.78;2.65;;;22.10;53.60;;;;;;4955663;28;20029;-78
2022/09/07 04:11:06;;;;;;;5.82;2.65;;;22.10;53.50;;;;;;4973164;28;20110;-77
2022/09/07 04:13:34;;;;;;;8.98;2.53;;;22.10;53.50;;;;;;4955821;28;20117;-77
2022/09/07 04:16:12;;;;;;;7.35;2.50;;;22.10;53.50;;;;;;4956106;28;20065;-77
2022/09/07 04:18:38;;;;;;;5.60;2.72;;;22.10;53.10;;;;;;4972972;28;20476;-76
2022/09/07 04:21:04;;;;;;;7.63;2.88;;;22.00;53.50;;;;;;4973050;28;20499;-76
2022/09/07 04:23:31;;;;;;;10.40;4.30;;;22.00;53.20;;;;;;4973088;28;20062;-76
2022/09/07 04:25:56;;;;;;;5.50;2.60;;;22.10;53.20;;;;;;4972980;28;20472;-77
2022/09/07 04:28:22;;;;;;;5.93;2.88;;;22.00;53.00;;;;;;4972248;28;20085;-77
2022/09/07 04:30:48;;;;;;;5.50;3.15;;;22.00;53.20;;;;;;4972745;28;20093;-77
2022/09/07 04:33:14;;;;;;;8.63;2.90;;;22.10;53.10;;;;;;4955978;28;20023;-77
2022/09/07 04:35:41;;;;;;;7.75;2.35;;;22.10;53.30;;;;;;4955666;28;20039;-77
2022/09/07 04:38:13;;;;;;;5.50;2.78;;;22.10;53.20;;;;;;4955898;28;20035;-77
2022/09/07 04:40:39;;;;;;;8.15;3.83;;;22.10;53.40;;;;;;4955438;28;20031;-77
2022/09/07 04:43:06;;;;;;;8.93;3.95;;;22.10;53.20;;;;;;4972793;28;20038;-77
2022/09/07 04:45:35;;;;;;;7.22;3.40;;;22.10;53.30;;;;;;4972718;28;20031;-77
2022/09/07 04:48:02;;;;;;;8.32;3.20;;;22.10;53.10;;;;;;4972674;28;20031;-78
2022/09/07 04:50:28;;;;;;;6.85;3.10;;;22.10;53.00;;;;;;4972555;28;20498;-78
2022/09/07 04:52:56;;;;;;;9.57;4.07;;;22.10;53.00;;;;;;4955966;28;20023;-77
2022/09/07 04:55:22;;;;;;;6.57;3.05;;;22.10;53.00;;;;;;4972672;28;20384;-77
2022/09/07 04:57:50;;;;;;;5.93;3.08;;;22.10;53.10;;;;;;4955581;28;20043;-76
2022/09/07 05:00:16;;;;;;;6.50;2.92;;;22.10;53.20;;;;;;4955408;28;20037;-76
2022/09/07 05:02:42;;;;;;;11.27;3.38;;;22.10;53.10;;;;;;4980165;28;20125;-76
2022/09/07 05:05:08;;;;;;;7.72;2.97;;;22.10;52.80;;;;;;4990478;28;20121;-76
2022/09/07 05:07:34;;;;;;;6.47;3.47;;;22.10;52.90;;;;;;4991354;28;20073;-76
2022/09/07 05:10:00;;;;;;;10.50;3.50;;;22.00;52.90;;;;;;4973668;28;20417;-76
2022/09/07 05:12:25;;;;;;;9.93;3.25;;;22.00;52.70;;;;;;4991870;28;20549;-76
2022/09/07 05:14:51;;;;;;;10.70;3.22;;;22.00;52.70;;;;;;4958756;28;20039;-75
2022/09/07 05:17:18;;;;;;;11.73;3.38;;;22.00;52.80;;;;;;4992047;28;20042;-76
2022/09/07 05:19:44;;;;;;;7.30;3.15;;;22.00;52.30;;;;;;4958467;28;20037;-76
2022/09/07 05:22:10;;;;;;;8.65;3.20;;;22.00;52.60;;;;;;4991776;28;20043;-76
2022/09/07 05:24:36;;;;;;;9.18;3.22;;;22.00;52.30;;;;;;4991668;28;20471;-76
2022/09/07 05:27:02;;;;;;;7.28;3.38;;;22.00;52.40;;;;;;4958391;28;20087;-76
2022/09/07 05:29:29;;;;;;;7.82;3.28;;;22.00;52.60;;;;;;4991512;28;20030;-77
2022/09/07 05:31:55;;;;;;;10.07;3.17;;;22.00;52.60;;;;;;4991720;28;20039;-76
2022/09/07 05:34:22;;;;;;;6.78;3.10;;;22.00;52.60;;;;;;4992161;28;20410;-77
2022/09/07 05:36:48;;;;;;;5.90;2.72;;;22.00;52.60;;;;;;4974310;28;20380;-76
2022/09/07 05:39:13;;;;;;;6.68;3.33;;;22.00;52.70;;;;;;4991205;28;20092;-77
2022/09/07 05:41:39;;;;;;;9.27;3.45;;;22.00;52.60;;;;;;4976741;28;20471;-75
2022/09/07 05:44:05;;;;;;;7.45;3.20;;;22.00;52.60;;;;;;4977926;28;20109;-76
2022/09/07 05:46:32;;;;;;;5.75;3.25;;;22.00;52.60;;;;;;4961389;28;20035;-76
2022/09/07 05:48:59;;;;;;;7.60;3.30;;;22.00;53.10;;;;;;4994518;28;20038;-76
2022/09/07 05:51:28;;;;;;;6.22;2.97;;;22.00;52.40;;;;;;4995099;28;20030;-77
2022/09/07 05:53:55;;;;;;;8.70;3.30;;;22.00;52.40;;;;;;4961459;28;20479;-75
2022/09/07 05:56:20;;;;;;;6.70;3.00;;;22.00;52.60;;;;;;4977585;28;20445;-76
2022/09/07 05:58:49;;;;;;;7.63;3.13;;;22.00;52.40;;;;;;4994348;28;20030;-77
2022/09/07 06:01:16;;;;;;;10.57;3.20;;;22.00;52.50;;;;;;4977588;28;20049;-76
2022/09/07 06:03:43;;;;;;;12.20;3.75;;;22.00;52.50;;;;;;4977491;28;20081;-76
2022/09/07 06:06:14;;;;;;;9.77;4.50;;;22.00;52.50;;;;;;4994633;28;20034;-77
2022/09/07 06:08:46;;;;;;;6.55;2.78;;;22.00;52.60;;;;;;4977023;28;20030;-77
2022/09/07 06:11:17;;;;;;;6.35;3.25;;;22.00;52.50;;;;;;4977380;28;20031;-76
2022/09/07 06:13:44;;;;;;;7.65;3.40;;;22.00;52.50;;;;;;4994693;28;20558;-76
2022/09/07 06:16:11;;;;;;;6.53;3.10;;;22.00;52.60;;;;;;4995135;28;20030;-77
2022/09/07 06:18:40;;;;;;;8.75;3.30;;;22.00;52.60;;;;;;4976766;28;20594;-77
2022/09/07 06:21:36;;;;;;;8.57;3.45;;;22.00;52.70;;;;;;4994754;28;20034;-77
2022/09/07 06:24:03;;;;;;;6.95;3.30;;;22.00;52.40;;;;;;4992903;28;20097;-77
2022/09/07 06:26:29;;;;;;;6.32;3.40;;;22.00;52.60;;;;;;4994313;28;20430;-76
2022/09/07 06:28:54;;;;;;;7.00;3.38;;;22.00;52.40;;;;;;4944856;28;20077;-78
2022/09/07 06:31:22;;;;;;;6.18;3.22;;;22.10;52.60;;;;;;4976786;28;20073;-79
2022/09/07 06:33:49;;;;;;;9.85;3.50;;;22.10;52.80;;;;;;4976901;28;20479;-78
2022/09/07 06:36:22;;;;;;;9.25;3.30;;;22.10;52.70;;;;;;4976822;28;20434;-78
2022/09/07 06:38:50;;;;;;;9.15;3.05;;;22.10;52.60;;;;;;4993744;28;20077;-77
2022/09/07 06:41:21;;;;;;;8.40;4.10;;;22.10;52.50;;;;;;4976925;28;20552;-79
2022/09/07 06:43:47;;;;;;;11.68;3.60;;;22.10;52.80;;;;;;4976733;28;20371;-77
2022/09/07 06:46:14;;;;;;;7.80;3.20;;;22.10;52.60;;;;;;4993574;28;20470;-78
2022/09/07 06:48:40;;;;;;;9.18;3.45;;;22.10;52.60;;;;;;4976254;28;20026;-77
2022/09/07 06:51:10;;;;;;;8.07;3.53;;;22.10;52.70;;;;;;4976370;28;20074;-77
2022/09/07 06:53:37;;;;;;;6.95;3.22;;;22.10;52.70;;;;;;4976795;28;20034;-77
2022/09/07 06:56:08;;;;;;;8.30;3.58;;;22.10;52.70;;;;;;4961001;28;20038;-77
2022/09/07 06:58:34;;;;;;;8.90;3.47;;;22.10;52.90;;;;;;4975990;28;20037;-77
2022/09/07 07:01:10;;;;;;;6.75;3.08;;;22.10;52.90;;;;;;4993759;28;20483;-78
2022/09/07 07:03:37;;;;;;;10.48;3.33;;;22.10;52.90;;;;;;4960440;28;20515;-77
2022/09/07 07:06:03;;;;;;;7.63;3.75;;;22.10;53.50;;;;;;4993701;28;20486;-78
2022/09/07 07:08:29;;;;;;;8.80;3.80;;;22.10;52.80;;;;;;4975908;28;20109;-78
2022/09/07 07:11:00;;;;;;;8.18;3.55;;;22.10;52.60;;;;;;4976002;28;20033;-78
2022/09/07 07:13:26;;;;;;;9.93;3.95;;;22.10;52.70;;;;;;4960349;28;20030;-78
2022/09/07 07:15:52;;;;;;;8.75;3.78;;;22.10;53.00;;;;;;4976227;28;20045;-78
2022/09/07 07:18:18;;;;;;;7.95;3.97;;;22.20;52.80;;;;;;4993439;28;20050;-78
2022/09/07 07:20:44;;;;;;;11.23;4.25;;;22.20;52.80;;;;;;4975972;28;20109;-77
2022/09/07 07:23:11;;;;;;;6.97;3.30;;;22.20;52.80;;;;;;4975972;28;20034;-77
2022/09/07 07:25:37;;;;;;;11.05;3.97;;;22.20;53.00;;;;;;4975815;28;20036;-77
2022/09/07 07:28:03;;;;;;;11.52;4.10;;;22.20;52.90;;;;;;4992738;28;20026;-77
2022/09/07 07:30:30;;;;;;;10.18;4.28;;;22.20;53.00;;;;;;4975642;28;20498;-77
2022/09/07 07:32:56;;;;;;;10.98;4.38;;;22.20;52.80;;;;;;4993162;28;20031;-77
2022/09/07 07:35:22;;;;;;;10.80;4.30;;;22.20;52.70;;;;;;4975732;28;20031;-77
2022/09/07 07:37:51;;;;;;;11.35;4.53;;;22.20;52.80;;;;;;4993019;28;20081;-77
2022/09/07 07:40:18;;;;;;;18.15;4.88;;;22.30;52.80;;;;;;4975287;28;20399;-77
2022/09/07 07:42:43;;;;;;;9.48;4.55;;;22.20;52.90;;;;;;4975616;28;20026;-77
2022/09/07 07:45:10;;;;;;;13.52;5.25;;;22.20;53.00;;;;;;4975528;28;20034;-76
2022/09/07 07:47:36;;;;;;;10.48;4.57;;;22.20;53.10;;;;;;4993059;28;20022;-76
2022/09/07 07:50:05;;;;;;;8.60;4.60;;;22.30;53.30;;;;;;4959007;28;20053;-77
2022/09/07 07:52:33;;;;;;;12.32;4.70;;;22.30;53.40;;;;;;4992648;28;20101;-77
2022/09/07 07:54:59;;;;;;;13.75;4.95;;;22.30;53.40;;;;;;4974579;28;20471;-78
2022/09/07 07:57:24;;;;;;;9.48;4.50;;;22.30;53.40;;;;;;4985709;28;20026;-78
2022/09/07 07:59:50;;;;;;;11.65;4.95;;;22.30;53.50;;;;;;4992121;28;20458;-77
2022/09/07 08:02:16;;;;;;;21.92;5.75;;;22.30;53.60;;;;;;4992324;28;20093;-78
2022/09/07 08:04:42;;;;;;;13.52;5.40;;;22.30;53.70;;;;;;4992131;28;20033;-76
2022/09/07 08:07:10;;;;;;;14.13;5.50;;;22.40;54.40;;;;;;4975068;28;20394;-78
2022/09/07 08:09:44;;;;;;;13.80;5.72;;;22.40;55.00;;;;;;4992163;28;20077;-77
2022/09/07 08:12:13;;;;;;;12.85;5.22;;;22.50;55.90;;;;;;4974094;28;20029;-76
2022/09/07 08:14:41;;;;;;;14.38;5.65;;;22.50;57.80;;;;;;5011415;28;20068;-77
2022/09/07 08:17:13;;;;;;;12.53;5.87;;;22.50;55.50;;;;;;5012129;28;20034;-77
2022/09/07 08:19:39;;;;;;;11.88;5.65;;;22.50;58.10;;;;;;5011409;28;20072;-78
2022/09/07 08:22:06;;;;;;;11.20;4.95;;;22.50;58.50;;;;;;4994478;28;20037;-78
2022/09/07 08:24:32;;;;;;;12.88;4.95;;;22.60;58.70;;;;;;5011695;28;20125;-78
2022/09/07 08:26:58;;;;;;;12.30;5.18;;;22.60;56.50;;;;;;4974041;28;20570;-79
2022/09/07 08:29:24;;;;;;;14.50;4.97;;;22.60;57.60;;;;;;4976162;28;20112;-78
2022/09/07 08:31:50;;;;;;;13.80;4.90;;;22.60;58.10;;;;;;4997753;28;20050;-71
2022/09/07 08:34:16;;;;;;;17.00;5.18;;;22.70;57.60;;;;;;4990278;28;20129;-71
2022/09/07 08:36:42;;;;;;;15.25;5.25;;;22.60;57.50;;;;;;4971764;28;20026;-72
2022/09/07 08:39:08;;;;;;;18.35;5.65;;;22.60;57.00;;;;;;4991595;28;20113;-71
2022/09/07 08:41:58;;;;;;;20.15;7.70;;;22.60;57.20;;;;;;4990540;28;20110;-71
2022/09/07 08:44:47;;;;;;;15.48;5.55;;;22.60;57.20;;;;;;4971179;28;20492;-71
2022/09/07 08:47:34;;;;;;;27.83;9.23;;;22.60;57.20;;;;;;4972716;28;20158;-72
2022/09/07 08:50:05;;;;;;;19.05;7.22;;;22.60;55.90;;;;;;4971983;28;20093;-72
2022/09/07 08:52:51;;;;;;;16.55;6.95;;;22.60;56.10;;;;;;4973162;28;20035;-71
2022/09/07 08:55:28;;;;;;;16.13;7.05;;;22.60;55.90;;;;;;4971239;28;20442;-72
2022/09/07 08:58:30;;;;;;;15.35;7.00;;;22.60;55.80;;;;;;4972573;28;20034;-72
2022/09/07 09:00:59;;;;;;;14.88;6.05;;;22.60;56.10;;;;;;4972458;28;20395;-72
2022/09/07 09:03:28;;;;;;;12.30;5.60;;;22.60;55.80;;;;;;4955396;28;20174;-72
2022/09/07 09:06:03;;;;;;;16.38;5.95;;;22.60;55.70;;;;;;4972740;28;20027;-70
2022/09/07 09:08:47;;;;;;;36.05;6.75;;;22.60;55.30;;;;;;4954804;28;20395;-72
2022/09/07 09:11:44;;;;;;;11.20;5.78;;;22.60;55.50;;;;;;4971439;28;20027;-71
2022/09/07 09:14:23;;;;;;;11.77;5.30;;;22.60;55.50;;;;;;4973562;28;20372;-70
2022/09/07 09:17:06;;;;;;;11.45;4.65;;;22.70;55.60;;;;;;4975778;28;20073;-72
2022/09/07 09:20:01;;;;;;;11.27;5.03;;;22.60;55.60;;;;;;4958697;28;20391;-72
2022/09/07 09:22:27;;;;;;;13.35;5.15;;;22.60;55.70;;;;;;4961873;28;20030;-71
2022/09/07 09:25:04;;;;;;;11.05;5.13;;;22.70;55.80;;;;;;4958472;28;20035;-72
2022/09/07 09:27:30;;;;;;;10.30;4.90;;;22.70;55.70;;;;;;4995233;28;20033;-72
2022/09/07 09:29:58;;;;;;;10.85;4.88;;;22.70;55.80;;;;;;4973335;28;20018;-71
2022/09/07 09:32:35;;;;;;;10.20;5.25;;;22.70;55.90;;;;;;4994121;28;20015;-70
2022/09/07 09:35:27;;;;;;;12.07;5.07;;;22.70;55.90;;;;;;4977683;28;20056;-72
2022/09/07 09:37:52;;;;;;;13.13;5.03;;;22.70;56.00;;;;;;4958309;28;20114;-72
2022/09/07 09:40:29;;;;;;;12.27;4.68;;;22.70;55.90;;;;;;4968692;28;20517;-71
2022/09/07 09:43:22;;;;;;;11.95;5.20;;;22.70;56.00;;;;;;4993045;28;20109;-72
2022/09/07 09:45:52;;;;;;;13.18;4.80;;;22.70;56.30;;;;;;4994492;28;20499;-72
2022/09/07 09:48:40;;;;;;;11.93;4.93;;;22.70;56.70;;;;;;4971952;28;20120;-70
2022/09/07 09:51:07;;;;;;;9.73;5.18;;;22.70;56.60;;;;;;4993677;28;20026;-71
2022/09/07 09:53:37;;;;;;;17.15;5.78;;;22.70;56.60;;;;;;4994156;28;20033;-74
2022/09/07 09:56:03;;;;;;;18.75;6.13;;;22.70;57.10;;;;;;4994917;28;20034;-71
2022/09/07 09:58:31;;;;;;;16.63;5.97;;;22.70;57.10;;;;;;4994528;28;20036;-71
2022/09/07 10:01:06;;;;;;;18.20;5.95;;;22.70;57.30;;;;;;4993441;28;20034;-81
2022/09/07 10:03:33;;;;;;;15.40;6.40;;;22.70;57.30;;;;;;4977281;28;20040;-80
2022/09/07 10:06:02;;;;;;;19.40;6.20;;;22.70;57.00;;;;;;4976971;28;20029;-79
2022/09/07 10:08:30;;;;;;;13.07;6.45;;;22.80;57.30;;;;;;4994425;28;20030;-80
2022/09/07 10:11:06;;;;;;;15.73;5.78;;;22.80;57.30;;;;;;4993965;28;20022;-81
2022/09/07 10:13:37;;;;;;;28.58;6.47;;;22.90;57.60;;;;;;4957498;28;20456;-78
2022/09/07 10:16:07;;;;;;;11.48;5.80;;;22.80;57.40;;;;;;4992914;28;20034;-81
2022/09/07 10:18:36;;;;;;;15.50;5.82;;;22.80;57.90;;;;;;4990515;28;20058;-81
2022/09/07 10:21:24;;;;;;;15.77;5.88;;;22.70;57.40;;;;;;4977389;28;20158;-82
2022/09/07 10:23:56;;;;;;;14.68;6.45;;;22.70;57.70;;;;;;4976625;28;20038;-82
2022/09/07 10:26:30;;;;;;;15.63;6.38;;;22.70;57.80;;;;;;4993456;28;20038;-80
2022/09/07 10:29:29;;;;;;;16.73;6.68;;;22.70;57.80;;;;;;4993958;28;20038;-81
2022/09/07 10:32:20;;;;;;;10.90;6.13;;;22.70;58.10;;;;;;4977039;28;20491;-80
2022/09/07 10:34:54;;;;;;;15.57;7.13;;;22.70;58.00;;;;;;4977011;28;20026;-81
2022/09/07 10:37:45;;;;;;;15.05;7.78;;;22.70;58.10;;;;;;4976875;28;20072;-80
2022/09/07 10:40:29;;;;;;;18.17;7.32;;;22.70;58.10;;;;;;4993512;28;20041;-80
2022/09/07 10:43:11;;;;;;;14.32;6.50;;;22.70;58.20;;;;;;4994686;28;20037;-80
2022/09/07 10:46:12;;;;;;;15.70;7.35;;;22.60;58.20;;;;;;4994018;28;20034;-81
2022/09/07 10:48:41;;;;;;;15.60;7.43;;;22.70;58.20;;;;;;4931753;28;20487;-81
2022/09/07 10:51:16;;;;;;;10.80;6.50;;;22.60;58.30;;;;;;4976405;28;20379;-81
2022/09/07 10:53:54;;;;;;;10.13;6.32;;;22.60;58.40;;;;;;4994246;28;20045;-81
2022/09/07 10:56:34;;;;;;;13.38;6.13;;;22.60;58.40;;;;;;4993956;28;20052;-81
2022/09/07 10:59:30;;;;;;;13.98;7.50;;;22.60;58.70;;;;;;4993392;28;20041;-81
2022/09/07 11:02:20;;;;;;;10.25;6.40;;;22.60;58.60;;;;;;4976303;28;20038;-84
2022/09/07 11:05:21;;;;;;;13.75;6.45;;;22.60;58.80;;;;;;4993942;28;20058;-83
2022/09/07 11:08:02;;;;;;;11.00;6.05;;;22.60;59.20;;;;;;4993700;28;20500;-83
2022/09/07 11:11:15;;;;;;;12.40;6.80;;;22.60;58.80;;;;;;4993420;28;20023;-84
2022/09/07 11:13:47;;;;;;;14.48;6.38;;;22.60;59.20;;;;;;4907761;28;20091;-83
2022/09/07 11:16:18;;;;;;;15.77;6.45;;;22.60;59.00;;;;;;4976230;28;20117;-84
2022/09/07 11:19:11;;;;;;;14.27;6.57;;;22.60;59.10;;;;;;4975305;28;20398;-83
2022/09/07 11:21:44;;;;;;;11.73;6.68;;;22.60;59.10;;;;;;4975357;28;20383;-76
2022/09/07 11:24:21;;;;;;;17.95;6.13;;;22.60;59.30;;;;;;4968872;28;20030;-75
2022/09/07 11:26:55;;;;;;;15.18;6.65;;;22.60;59.40;;;;;;4990884;28;20022;-75
2022/09/07 11:29:39;;;;;;;16.98;7.13;;;22.60;59.40;;;;;;4974155;28;20387;-76
2022/09/07 11:32:31;;;;;;;18.33;7.63;;;22.70;59.60;;;;;;4992545;28;20030;-75
2022/09/07 11:35:14;;;;;;;13.57;7.22;;;22.70;59.80;;;;;;4989260;28;20030;-75
2022/09/07 11:37:42;;;;;;;15.40;7.30;;;22.70;59.80;;;;;;4987403;28;20022;-74
2022/09/07 11:40:15;;;;;;;21.40;11.80;;;22.70;59.90;;;;;;4972450;28;20084;-75
2022/09/07 11:42:43;;;;;;;30.90;19.35;;;22.70;59.90;;;;;;4992188;28;20034;-75
2022/09/07 11:45:27;;;;;;;27.73;17.30;;;22.70;59.90;;;;;;4996404;28;20026;-76
2022/09/07 11:48:05;;;;;;;22.52;11.32;;;22.80;60.10;;;;;;4992477;28;20660;-74
2022/09/07 11:50:57;;;;;;;20.83;10.73;;;22.70;60.30;;;;;;4948462;28;20062;-75
2022/09/07 11:53:28;;;;;;;19.13;9.98;;;22.80;60.90;;;;;;4985009;28;20034;-75
2022/09/07 11:56:27;;;;;;;14.23;8.80;;;22.80;60.30;;;;;;5012381;28;20032;-74
2022/09/07 11:59:17;;;;;;;16.85;7.40;;;22.80;60.30;;;;;;4998571;28;20042;-74
2022/09/07 12:02:00;;;;;;;16.50;7.47;;;22.80;60.60;;;;;;5012290;28;20034;-74
2022/09/07 12:04:57;;;;;;;16.77;7.80;;;22.80;60.70;;;;;;5011778;28;20037;-75
2022/09/07 12:07:43;;;;;;;16.02;8.20;;;22.90;61.10;;;;;;4993784;28;20068;-74
2022/09/07 12:10:36;;;;;;;15.65;7.65;;;23.00;61.40;;;;;;5012024;28;20120;-75
2022/09/07 12:13:36;;;;;;;18.98;6.70;;;23.00;61.80;;;;;;5000678;28;20782;-73
2022/09/07 12:16:16;;;;;;;14.30;7.45;;;22.90;63.70;;;;;;4974718;28;20034;-74
2022/09/07 12:19:08;;;;;;;13.88;8.13;;;23.00;62.50;;;;;;4974752;28;20034;-74
2022/09/07 12:21:41;;;;;;;15.85;8.05;;;23.00;63.10;;;;;;4943460;28;20096;-74
2022/09/07 12:24:34;;;;;;;16.13;8.25;;;23.00;62.60;;;;;;4992538;28;20026;-74
2022/09/07 12:27:02;;;;;;;16.38;8.60;;;23.00;62.10;;;;;;4970524;28;20041;-73
2022/09/07 12:29:29;;;;;;;12.05;7.80;;;23.00;62.40;;;;;;4974189;28;20026;-73
2022/09/07 12:31:57;;;;;;;14.30;7.93;;;23.00;62.20;;;;;;4989750;28;20189;-73
2022/09/07 12:34:53;;;;;;;13.85;8.00;;;23.00;62.40;;;;;;4992087;28;20022;-72
2022/09/07 12:37:39;;;;;;;12.80;8.25;;;23.00;62.00;;;;;;4987046;28;20050;-73
2022/09/07 12:40:32;;;;;;;13.57;8.10;;;23.00;61.80;;;;;;4991604;28;20034;-73
2022/09/07 12:43:13;;;;;;;13.10;7.97;;;23.00;61.90;;;;;;4985480;28;20035;-73
2022/09/07 12:45:38;;;;;;;19.05;7.43;;;23.00;62.00;;;;;;4974779;28;20034;-73
2022/09/07 12:48:13;;;;;;;12.43;7.90;;;23.00;62.20;;;;;;4973153;28;20043;-73
2022/09/07 12:50:59;;;;;;;11.82;7.53;;;23.00;62.10;;;;;;4993676;28;20033;-73
2022/09/07 12:53:52;;;;;;;11.02;7.55;;;23.00;62.20;;;;;;4968512;28;20030;-73
2022/09/07 12:56:48;;;;;;;17.55;7.78;;;23.00;62.00;;;;;;4995972;28;20026;-73
2022/09/07 12:59:35;;;;;;;11.00;7.43;;;23.00;62.20;;;;;;4957154;28;20042;-73
2022/09/07 13:02:22;;;;;;;15.05;7.30;;;22.90;62.40;;;;;;4996089;28;20030;-73
2022/09/07 13:05:12;;;;;;;12.32;7.72;;;22.90;62.10;;;;;;4996345;28;20453;-74
2022/09/07 13:08:00;;;;;;;12.00;7.28;;;22.90;62.10;;;;;;4978432;28;20109;-73
2022/09/07 13:10:30;;;;;;;13.00;7.10;;;22.90;62.20;;;;;;4995194;28;20058;-73
2022/09/07 13:13:24;;;;;;;15.48;7.50;;;22.90;62.30;;;;;;4995795;28;20026;-73
2022/09/07 13:16:05;;;;;;;15.95;7.70;;;22.90;62.40;;;;;;4995439;28;20033;-73